sensor_id;sensor_type;location;lat;lon;timestamp;P1;durP1;ratioP1;P2;durP2;ratioP2
1346;SDS011;667;48.796;9.480;2024-01-30T00:01:41;6.47;;;5.23;;
1346;SDS011;667;48.796;9.480;2024-01-30T00:04:07;7.90;;;6.17;;
1346;SDS011;667;48.796;9.480;2024-01-30T00:06:32;6.73;;;6.00;;
1346;SDS011;667;48.796;9.480;2024-01-30T00:08:58;6.50;;;5.80;;
1346;SDS011;667;48.796;9.480;2024-01-30T00:11:23;6.97;;;5.70;;
1346;SDS011;667;48.796;9.480;2024-01-30T00:13:50;6.07;;;5.25;;
1346;SDS011;667;48.796;9.480;2024-01-30T00:16:22;6.65;;;5.47;;
1346;SDS011;667;48.796;9.480;2024-01-30T00:18:52;5.82;;;5.20;;
1346;SDS011;667;48.796;9.480;2024-01-30T00:21:18;6.60;;;4.90;;
1346;SDS011;667;48.796;9.480;2024-01-30T00:23:43;6.97;;;5.83;;
1346;SDS011;667;48.796;9.480;2024-01-30T00:26:09;7.50;;;6.73;;
1346;SDS011;667;48.796;9.480;2024-01-30T00:28:36;12.77;;;6.22;;
1346;SDS011;667;48.796;9.480;2024-01-30T00:31:02;7.38;;;5.57;;
1346;SDS011;667;48.796;9.480;2024-01-30T00:33:28;8.60;;;6.30;;
1346;SDS011;667;48.796;9.480;2024-01-30T00:35:53;9.23;;;5.17;;
1346;SDS011;667;48.796;9.480;2024-01-30T00:38:19;6.13;;;5.23;;
1346;SDS011;667;48.796;9.480;2024-01-30T00:40:44;9.57;;;6.40;;
1346;SDS011;667;48.796;9.480;2024-01-30T00:43:10;6.70;;;5.67;;
1346;SDS011;667;48.796;9.480;2024-01-30T00:45:35;5.93;;;5.33;;
1346;SDS011;667;48.796;9.480;2024-01-30T00:48:01;9.47;;;5.60;;
1346;SDS011;667;48.796;9.480;2024-01-30T00:50:26;7.00;;;5.60;;
1346;SDS011;667;48.796;9.480;2024-01-30T00:52:52;8.00;;;6.60;;
1346;SDS011;667;48.796;9.480;2024-01-30T00:55:17;9.37;;;5.90;;
1346;SDS011;667;48.796;9.480;2024-01-30T00:57:43;7.23;;;5.63;;
1346;SDS011;667;48.796;9.480;2024-01-30T01:00:09;5.87;;;5.27;;
1346;SDS011;667;48.796;9.480;2024-01-30T01:02:35;6.82;;;5.90;;
1346;SDS011;667;48.796;9.480;2024-01-30T01:05:01;9.37;;;5.03;;
1346;SDS011;667;48.796;9.480;2024-01-30T01:07:27;9.00;;;6.10;;
1346;SDS011;667;48.796;9.480;2024-01-30T01:09:52;7.23;;;6.37;;
1346;SDS011;667;48.796;9.480;2024-01-30T01:12:18;6.80;;;5.80;;
1346;SDS011;667;48.796;9.480;2024-01-30T01:14:43;7.20;;;6.30;;
1346;SDS011;667;48.796;9.480;2024-01-30T01:17:09;6.73;;;6.00;;
1346;SDS011;667;48.796;9.480;2024-01-30T01:19:34;6.40;;;5.80;;
1346;SDS011;667;48.796;9.480;2024-01-30T01:22:00;9.60;;;6.77;;
1346;SDS011;667;48.796;9.480;2024-01-30T01:24:25;8.50;;;6.50;;
1346;SDS011;667;48.796;9.480;2024-01-30T01:26:51;7.10;;;5.90;;
1346;SDS011;667;48.796;9.480;2024-01-30T01:29:16;6.77;;;5.90;;
1346;SDS011;667;48.796;9.480;2024-01-30T01:31:42;6.47;;;5.80;;
1346;SDS011;667;48.796;9.480;2024-01-30T01:34:11;6.93;;;6.22;;
1346;SDS011;667;48.796;9.480;2024-01-30T01:36:37;6.28;;;5.50;;
1346;SDS011;667;48.796;9.480;2024-01-30T01:39:04;8.80;;;5.88;;
1346;SDS011;667;48.796;9.480;2024-01-30T01:41:30;6.63;;;5.43;;
1346;SDS011;667;48.796;9.480;2024-01-30T01:43:56;8.38;;;5.70;;
1346;SDS011;667;48.796;9.480;2024-01-30T01:46:22;6.70;;;5.67;;
1346;SDS011;667;48.796;9.480;2024-01-30T01:48:48;7.20;;;6.07;;
1346;SDS011;667;48.796;9.480;2024-01-30T01:51:14;8.20;;;6.83;;
1346;SDS011;667;48.796;9.480;2024-01-30T01:53:40;9.13;;;7.10;;
1346;SDS011;667;48.796;9.480;2024-01-30T01:56:06;10.50;;;7.67;;
1346;SDS011;667;48.796;9.480;2024-01-30T01:58:32;8.57;;;6.70;;
1346;SDS011;667;48.796;9.480;2024-01-30T02:00:58;7.27;;;6.17;;
1346;SDS011;667;48.796;9.480;2024-01-30T02:03:24;9.02;;;7.13;;
1346;SDS011;667;48.796;9.480;2024-01-30T02:05:53;8.40;;;7.00;;
1346;SDS011;667;48.796;9.480;2024-01-30T02:08:19;9.43;;;6.53;;
1346;SDS011;667;48.796;9.480;2024-01-30T02:10:45;7.17;;;6.47;;
1346;SDS011;667;48.796;9.480;2024-01-30T02:13:10;8.30;;;6.70;;
1346;SDS011;667;48.796;9.480;2024-01-30T02:15:36;7.97;;;6.37;;
1346;SDS011;667;48.796;9.480;2024-01-30T02:18:02;6.87;;;6.27;;
1346;SDS011;667;48.796;9.480;2024-01-30T02:20:28;6.87;;;5.70;;
1346;SDS011;667;48.796;9.480;2024-01-30T02:22:56;7.63;;;6.03;;
1346;SDS011;667;48.796;9.480;2024-01-30T02:25:36;6.78;;;5.75;;
1346;SDS011;667;48.796;9.480;2024-01-30T02:28:03;8.70;;;5.95;;
1346;SDS011;667;48.796;9.480;2024-01-30T02:30:29;7.80;;;6.47;;
1346;SDS011;667;48.796;9.480;2024-01-30T02:32:55;8.23;;;6.40;;
1346;SDS011;667;48.796;9.480;2024-01-30T02:35:20;6.73;;;5.90;;
1346;SDS011;667;48.796;9.480;2024-01-30T02:37:46;5.63;;;5.13;;
1346;SDS011;667;48.796;9.480;2024-01-30T02:40:11;7.50;;;6.50;;
1346;SDS011;667;48.796;9.480;2024-01-30T02:42:37;6.57;;;5.87;;
1346;SDS011;667;48.796;9.480;2024-01-30T02:45:03;5.70;;;5.10;;
1346;SDS011;667;48.796;9.480;2024-01-30T02:47:28;6.97;;;5.47;;
1346;SDS011;667;48.796;9.480;2024-01-30T02:49:54;6.73;;;5.63;;
1346;SDS011;667;48.796;9.480;2024-01-30T02:52:19;5.67;;;4.73;;
1346;SDS011;667;48.796;9.480;2024-01-30T02:54:45;6.10;;;4.40;;
1346;SDS011;667;48.796;9.480;2024-01-30T02:57:11;6.13;;;5.27;;
1346;SDS011;667;48.796;9.480;2024-01-30T02:59:36;6.00;;;5.17;;
1346;SDS011;667;48.796;9.480;2024-01-30T03:02:02;5.37;;;4.87;;
1346;SDS011;667;48.796;9.480;2024-01-30T03:04:28;4.93;;;4.40;;
1346;SDS011;667;48.796;9.480;2024-01-30T03:06:55;5.28;;;4.60;;
1346;SDS011;667;48.796;9.480;2024-01-30T03:09:20;6.70;;;4.37;;
1346;SDS011;667;48.796;9.480;2024-01-30T03:11:46;5.70;;;5.07;;
1346;SDS011;667;48.796;9.480;2024-01-30T03:14:11;5.33;;;4.77;;
1346;SDS011;667;48.796;9.480;2024-01-30T03:16:37;8.50;;;5.17;;
1346;SDS011;667;48.796;9.480;2024-01-30T03:19:03;5.43;;;4.37;;
1346;SDS011;667;48.796;9.480;2024-01-30T03:21:30;5.22;;;4.72;;
1346;SDS011;667;48.796;9.480;2024-01-30T03:23:55;6.27;;;4.93;;
1346;SDS011;667;48.796;9.480;2024-01-30T03:26:21;5.97;;;5.37;;
1346;SDS011;667;48.796;9.480;2024-01-30T03:28:47;6.00;;;5.33;;
1346;SDS011;667;48.796;9.480;2024-01-30T03:31:14;5.13;;;4.57;;
1346;SDS011;667;48.796;9.480;2024-01-30T03:33:40;8.60;;;5.07;;
1346;SDS011;667;48.796;9.480;2024-01-30T03:36:06;5.83;;;5.07;;
1346;SDS011;667;48.796;9.480;2024-01-30T03:38:32;5.78;;;4.70;;
1346;SDS011;667;48.796;9.480;2024-01-30T03:40:58;6.43;;;5.33;;
1346;SDS011;667;48.796;9.480;2024-01-30T03:43:24;9.15;;;5.32;;
1346;SDS011;667;48.796;9.480;2024-01-30T03:45:50;7.57;;;5.20;;
1346;SDS011;667;48.796;9.480;2024-01-30T03:48:15;5.90;;;5.00;;
1346;SDS011;667;48.796;9.480;2024-01-30T03:50:41;5.37;;;4.60;;
1346;SDS011;667;48.796;9.480;2024-01-30T03:53:06;6.50;;;5.10;;
1346;SDS011;667;48.796;9.480;2024-01-30T03:55:32;9.40;;;6.03;;
1346;SDS011;667;48.796;9.480;2024-01-30T03:57:57;9.10;;;5.13;;
1346;SDS011;667;48.796;9.480;2024-01-30T04:00:23;7.63;;;5.17;;
1346;SDS011;667;48.796;9.480;2024-01-30T04:02:49;6.00;;;5.30;;
1346;SDS011;667;48.796;9.480;2024-01-30T04:05:16;6.72;;;5.25;;
1346;SDS011;667;48.796;9.480;2024-01-30T04:07:42;7.30;;;5.33;;
1346;SDS011;667;48.796;9.480;2024-01-30T04:10:07;9.43;;;6.10;;
1346;SDS011;667;48.796;9.480;2024-01-30T04:12:34;8.25;;;5.57;;
1346;SDS011;667;48.796;9.480;2024-01-30T04:15:00;6.10;;;5.30;;
1346;SDS011;667;48.796;9.480;2024-01-30T04:17:27;5.20;;;4.70;;
1346;SDS011;667;48.796;9.480;2024-01-30T04:19:53;9.15;;;5.65;;
1346;SDS011;667;48.796;9.480;2024-01-30T04:22:19;6.93;;;5.60;;
1346;SDS011;667;48.796;9.480;2024-01-30T04:24:45;6.27;;;5.67;;
1346;SDS011;667;48.796;9.480;2024-01-30T04:27:11;6.00;;;5.40;;
1346;SDS011;667;48.796;9.480;2024-01-30T04:29:36;5.50;;;4.90;;
1346;SDS011;667;48.796;9.480;2024-01-30T04:32:02;7.47;;;5.50;;
1346;SDS011;667;48.796;9.480;2024-01-30T04:34:27;5.70;;;5.03;;
1346;SDS011;667;48.796;9.480;2024-01-30T04:36:53;6.97;;;5.87;;
1346;SDS011;667;48.796;9.480;2024-01-30T04:39:18;6.27;;;5.33;;
1346;SDS011;667;48.796;9.480;2024-01-30T04:41:44;6.83;;;5.40;;
1346;SDS011;667;48.796;9.480;2024-01-30T04:44:09;6.10;;;5.50;;
1346;SDS011;667;48.796;9.480;2024-01-30T04:46:35;6.10;;;5.40;;
1346;SDS011;667;48.796;9.480;2024-01-30T04:49:00;8.93;;;5.10;;
1346;SDS011;667;48.796;9.480;2024-01-30T04:51:26;13.50;;;9.20;;
1346;SDS011;667;48.796;9.480;2024-01-30T04:53:51;8.43;;;7.57;;
1346;SDS011;667;48.796;9.480;2024-01-30T04:56:17;5.83;;;5.20;;
1346;SDS011;667;48.796;9.480;2024-01-30T04:58:43;6.50;;;5.80;;
1346;SDS011;667;48.796;9.480;2024-01-30T05:01:08;8.23;;;5.97;;
1346;SDS011;667;48.796;9.480;2024-01-30T05:03:35;6.70;;;6.00;;
1346;SDS011;667;48.796;9.480;2024-01-30T05:06:00;6.40;;;5.80;;
1346;SDS011;667;48.796;9.480;2024-01-30T05:08:26;7.30;;;5.87;;
1346;SDS011;667;48.796;9.480;2024-01-30T05:10:51;6.20;;;5.40;;
1346;SDS011;667;48.796;9.480;2024-01-30T05:13:17;6.07;;;5.47;;
1346;SDS011;667;48.796;9.480;2024-01-30T05:15:42;6.67;;;5.10;;
1346;SDS011;667;48.796;9.480;2024-01-30T05:18:08;8.03;;;6.40;;
1346;SDS011;667;48.796;9.480;2024-01-30T05:20:33;6.70;;;5.63;;
1346;SDS011;667;48.796;9.480;2024-01-30T05:22:59;5.90;;;5.10;;
1346;SDS011;667;48.796;9.480;2024-01-30T05:25:24;7.33;;;6.00;;
1346;SDS011;667;48.796;9.480;2024-01-30T05:27:50;6.90;;;5.53;;
1346;SDS011;667;48.796;9.480;2024-01-30T05:30:16;6.50;;;5.53;;
1346;SDS011;667;48.796;9.480;2024-01-30T05:32:41;7.37;;;5.17;;
1346;SDS011;667;48.796;9.480;2024-01-30T05:35:07;11.53;;;6.60;;
1346;SDS011;667;48.796;9.480;2024-01-30T05:37:35;6.60;;;5.35;;
1346;SDS011;667;48.796;9.480;2024-01-30T05:40:01;6.60;;;5.90;;
1346;SDS011;667;48.796;9.480;2024-01-30T05:42:26;7.43;;;5.60;;
1346;SDS011;667;48.796;9.480;2024-01-30T05:44:52;6.47;;;5.87;;
1346;SDS011;667;48.796;9.480;2024-01-30T05:47:17;7.57;;;6.20;;
1346;SDS011;667;48.796;9.480;2024-01-30T05:49:43;7.37;;;5.80;;
1346;SDS011;667;48.796;9.480;2024-01-30T05:52:08;7.73;;;6.57;;
1346;SDS011;667;48.796;9.480;2024-01-30T05:54:34;11.10;;;7.47;;
1346;SDS011;667;48.796;9.480;2024-01-30T05:57:00;9.43;;;6.97;;
1346;SDS011;667;48.796;9.480;2024-01-30T05:59:25;8.10;;;6.30;;
1346;SDS011;667;48.796;9.480;2024-01-30T06:01:51;6.60;;;6.00;;
1346;SDS011;667;48.796;9.480;2024-01-30T06:04:16;8.80;;;6.23;;
1346;SDS011;667;48.796;9.480;2024-01-30T06:06:42;8.10;;;5.90;;
1346;SDS011;667;48.796;9.480;2024-01-30T06:09:08;7.50;;;6.60;;
1346;SDS011;667;48.796;9.480;2024-01-30T06:11:37;6.95;;;5.82;;
1346;SDS011;667;48.796;9.480;2024-01-30T06:14:03;6.33;;;5.73;;
1346;SDS011;667;48.796;9.480;2024-01-30T06:16:29;10.03;;;6.53;;
1346;SDS011;667;48.796;9.480;2024-01-30T06:18:54;6.40;;;5.80;;
1346;SDS011;667;48.796;9.480;2024-01-30T06:21:20;7.60;;;6.82;;
1346;SDS011;667;48.796;9.480;2024-01-30T06:23:46;9.27;;;7.37;;
1346;SDS011;667;48.796;9.480;2024-01-30T06:26:12;7.17;;;6.47;;
1346;SDS011;667;48.796;9.480;2024-01-30T06:28:37;10.20;;;7.20;;
1346;SDS011;667;48.796;9.480;2024-01-30T06:31:03;6.77;;;5.80;;
1346;SDS011;667;48.796;9.480;2024-01-30T06:33:28;6.23;;;5.63;;
1346;SDS011;667;48.796;9.480;2024-01-30T06:35:54;8.27;;;6.60;;
1346;SDS011;667;48.796;9.480;2024-01-30T06:38:20;7.80;;;6.27;;
1346;SDS011;667;48.796;9.480;2024-01-30T06:40:45;8.43;;;6.67;;
1346;SDS011;667;48.796;9.480;2024-01-30T06:43:11;6.67;;;5.83;;
1346;SDS011;667;48.796;9.480;2024-01-30T06:45:36;9.70;;;6.03;;
1346;SDS011;667;48.796;9.480;2024-01-30T06:48:02;7.23;;;6.53;;
1346;SDS011;667;48.796;9.480;2024-01-30T06:50:28;6.83;;;5.97;;
1346;SDS011;667;48.796;9.480;2024-01-30T06:52:53;7.40;;;6.27;;
1346;SDS011;667;48.796;9.480;2024-01-30T06:55:19;11.43;;;7.00;;
1346;SDS011;667;48.796;9.480;2024-01-30T06:57:44;7.17;;;6.23;;
1346;SDS011;667;48.796;9.480;2024-01-30T07:00:10;8.03;;;7.17;;
1346;SDS011;667;48.796;9.480;2024-01-30T07:02:36;9.13;;;7.00;;
1346;SDS011;667;48.796;9.480;2024-01-30T07:05:02;9.40;;;6.70;;
1346;SDS011;667;48.796;9.480;2024-01-30T07:07:28;9.55;;;6.28;;
1346;SDS011;667;48.796;9.480;2024-01-30T07:10:00;8.55;;;7.03;;
1346;SDS011;667;48.796;9.480;2024-01-30T07:12:26;6.40;;;5.80;;
1346;SDS011;667;48.796;9.480;2024-01-30T07:14:52;7.90;;;6.67;;
1346;SDS011;667;48.796;9.480;2024-01-30T07:17:17;6.43;;;5.77;;
1346;SDS011;667;48.796;9.480;2024-01-30T07:19:43;7.77;;;6.77;;
1346;SDS011;667;48.796;9.480;2024-01-30T07:22:08;9.10;;;6.50;;
1346;SDS011;667;48.796;9.480;2024-01-30T07:24:34;6.70;;;5.53;;
1346;SDS011;667;48.796;9.480;2024-01-30T07:27:00;6.53;;;5.93;;
1346;SDS011;667;48.796;9.480;2024-01-30T07:29:25;7.07;;;6.37;;
1346;SDS011;667;48.796;9.480;2024-01-30T07:31:51;7.33;;;6.53;;
1346;SDS011;667;48.796;9.480;2024-01-30T07:34:17;5.87;;;5.27;;
1346;SDS011;667;48.796;9.480;2024-01-30T07:36:42;7.87;;;6.10;;
1346;SDS011;667;48.796;9.480;2024-01-30T07:39:08;8.30;;;6.67;;
1346;SDS011;667;48.796;9.480;2024-01-30T07:41:35;10.15;;;6.38;;
1346;SDS011;667;48.796;9.480;2024-01-30T07:44:00;7.40;;;6.23;;
1346;SDS011;667;48.796;9.480;2024-01-30T07:46:26;8.60;;;6.97;;
1346;SDS011;667;48.796;9.480;2024-01-30T07:48:51;9.37;;;7.40;;
1346;SDS011;667;48.796;9.480;2024-01-30T07:51:17;8.10;;;7.30;;
1346;SDS011;667;48.796;9.480;2024-01-30T07:53:42;6.90;;;6.03;;
1346;SDS011;667;48.796;9.480;2024-01-30T07:56:08;7.60;;;6.80;;
1346;SDS011;667;48.796;9.480;2024-01-30T07:58:33;14.07;;;10.10;;
1346;SDS011;667;48.796;9.480;2024-01-30T08:00:59;9.20;;;7.63;;
1346;SDS011;667;48.796;9.480;2024-01-30T08:03:25;14.25;;;8.57;;
1346;SDS011;667;48.796;9.480;2024-01-30T08:05:51;11.40;;;9.20;;
1346;SDS011;667;48.796;9.480;2024-01-30T08:08:16;11.10;;;8.70;;
1346;SDS011;667;48.796;9.480;2024-01-30T08:10:42;11.47;;;9.10;;
1346;SDS011;667;48.796;9.480;2024-01-30T08:13:08;12.10;;;8.77;;
1346;SDS011;667;48.796;9.480;2024-01-30T08:15:34;9.00;;;8.10;;
1346;SDS011;667;48.796;9.480;2024-01-30T08:17:59;12.23;;;9.57;;
1346;SDS011;667;48.796;9.480;2024-01-30T08:20:25;10.43;;;9.33;;
1346;SDS011;667;48.796;9.480;2024-01-30T08:22:51;11.93;;;9.43;;
1346;SDS011;667;48.796;9.480;2024-01-30T08:25:17;13.93;;;10.18;;
1346;SDS011;667;48.796;9.480;2024-01-30T08:27:43;12.60;;;9.90;;
1346;SDS011;667;48.796;9.480;2024-01-30T08:30:09;11.48;;;9.77;;
1346;SDS011;667;48.796;9.480;2024-01-30T08:32:35;11.70;;;9.47;;
1346;SDS011;667;48.796;9.480;2024-01-30T08:35:01;12.13;;;9.20;;
1346;SDS011;667;48.796;9.480;2024-01-30T08:37:28;14.55;;;8.80;;
1346;SDS011;667;48.796;9.480;2024-01-30T08:39:54;11.30;;;9.00;;
1346;SDS011;667;48.796;9.480;2024-01-30T08:42:20;11.47;;;8.80;;
1346;SDS011;667;48.796;9.480;2024-01-30T08:44:47;9.02;;;7.93;;
1346;SDS011;667;48.796;9.480;2024-01-30T08:47:14;9.82;;;8.25;;
1346;SDS011;667;48.796;9.480;2024-01-30T08:49:41;12.00;;;9.27;;
1346;SDS011;667;48.796;9.480;2024-01-30T08:52:09;14.23;;;9.95;;
1346;SDS011;667;48.796;9.480;2024-01-30T08:54:35;9.95;;;8.93;;
1346;SDS011;667;48.796;9.480;2024-01-30T08:57:00;10.40;;;9.30;;
1346;SDS011;667;48.796;9.480;2024-01-30T08:59:26;11.47;;;9.70;;
1346;SDS011;667;48.796;9.480;2024-01-30T09:01:52;11.83;;;9.90;;
1346;SDS011;667;48.796;9.480;2024-01-30T09:04:20;13.43;;;10.27;;
1346;SDS011;667;48.796;9.480;2024-01-30T09:06:46;10.70;;;8.45;;
1346;SDS011;667;48.796;9.480;2024-01-30T09:09:12;11.43;;;8.85;;
1346;SDS011;667;48.796;9.480;2024-01-30T09:11:38;12.73;;;9.83;;
1346;SDS011;667;48.796;9.480;2024-01-30T09:14:03;12.30;;;9.97;;
1346;SDS011;667;48.796;9.480;2024-01-30T09:16:29;10.67;;;9.60;;
1346;SDS011;667;48.796;9.480;2024-01-30T09:18:54;9.90;;;8.90;;
1346;SDS011;667;48.796;9.480;2024-01-30T09:21:20;11.37;;;10.17;;
1346;SDS011;667;48.796;9.480;2024-01-30T09:23:45;13.10;;;10.63;;
1346;SDS011;667;48.796;9.480;2024-01-30T09:26:11;11.87;;;10.60;;
1346;SDS011;667;48.796;9.480;2024-01-30T09:28:37;12.15;;;10.25;;
1346;SDS011;667;48.796;9.480;2024-01-30T09:31:03;11.40;;;9.93;;
1346;SDS011;667;48.796;9.480;2024-01-30T09:33:29;11.17;;;10.07;;
1346;SDS011;667;48.796;9.480;2024-01-30T09:35:54;13.00;;;9.87;;
1346;SDS011;667;48.796;9.480;2024-01-30T09:38:20;12.30;;;10.27;;
1346;SDS011;667;48.796;9.480;2024-01-30T09:40:46;18.00;;;9.90;;
1346;SDS011;667;48.796;9.480;2024-01-30T09:43:18;11.90;;;10.63;;
1346;SDS011;667;48.796;9.480;2024-01-30T09:45:48;12.10;;;9.95;;
1346;SDS011;667;48.796;9.480;2024-01-30T09:48:15;11.27;;;9.98;;
1346;SDS011;667;48.796;9.480;2024-01-30T09:50:41;11.10;;;10.00;;
1346;SDS011;667;48.796;9.480;2024-01-30T09:53:09;10.30;;;9.20;;
1346;SDS011;667;48.796;9.480;2024-01-30T09:55:38;12.23;;;10.18;;
1346;SDS011;667;48.796;9.480;2024-01-30T09:58:07;11.48;;;9.77;;
1346;SDS011;667;48.796;9.480;2024-01-30T10:00:33;13.00;;;11.13;;
1346;SDS011;667;48.796;9.480;2024-01-30T10:02:59;13.60;;;11.90;;
1346;SDS011;667;48.796;9.480;2024-01-30T10:05:26;11.93;;;10.73;;
1346;SDS011;667;48.796;9.480;2024-01-30T10:07:53;11.07;;;9.82;;
1346;SDS011;667;48.796;9.480;2024-01-30T10:10:21;10.98;;;9.85;;
1346;SDS011;667;48.796;9.480;2024-01-30T10:12:48;13.35;;;10.00;;
1346;SDS011;667;48.796;9.480;2024-01-30T10:15:14;11.13;;;10.00;;
1346;SDS011;667;48.796;9.480;2024-01-30T10:17:39;10.90;;;9.80;;
1346;SDS011;667;48.796;9.480;2024-01-30T10:20:05;10.23;;;9.27;;
1346;SDS011;667;48.796;9.480;2024-01-30T10:22:32;10.90;;;9.70;;
1346;SDS011;667;48.796;9.480;2024-01-30T10:24:58;10.10;;;8.93;;
1346;SDS011;667;48.796;9.480;2024-01-30T10:27:28;10.52;;;9.48;;
1346;SDS011;667;48.796;9.480;2024-01-30T10:29:54;14.63;;;12.27;;
1346;SDS011;667;48.796;9.480;2024-01-30T10:32:22;12.02;;;10.82;;
1346;SDS011;667;48.796;9.480;2024-01-30T10:34:48;12.63;;;11.03;;
1346;SDS011;667;48.796;9.480;2024-01-30T10:37:14;12.63;;;11.33;;
1346;SDS011;667;48.796;9.480;2024-01-30T10:39:42;12.95;;;11.70;;
1346;SDS011;667;48.796;9.480;2024-01-30T10:42:12;14.43;;;12.98;;
1346;SDS011;667;48.796;9.480;2024-01-30T10:47:37;13.70;;;12.30;;
1346;SDS011;667;48.796;9.480;2024-01-30T10:50:05;15.57;;;12.35;;
1346;SDS011;667;48.796;9.480;2024-01-30T10:52:32;14.02;;;12.52;;
1346;SDS011;667;48.796;9.480;2024-01-30T10:54:58;14.40;;;12.43;;
1346;SDS011;667;48.796;9.480;2024-01-30T10:57:27;14.18;;;12.65;;
1346;SDS011;667;48.796;9.480;2024-01-30T10:59:55;12.98;;;11.65;;
1346;SDS011;667;48.796;9.480;2024-01-30T11:02:22;20.40;;;12.75;;
1346;SDS011;667;48.796;9.480;2024-01-30T11:04:49;16.25;;;11.70;;
1346;SDS011;667;48.796;9.480;2024-01-30T11:07:18;14.85;;;12.60;;
1346;SDS011;667;48.796;9.480;2024-01-30T11:12:26;13.50;;;12.20;;
1346;SDS011;667;48.796;9.480;2024-01-30T11:17:41;15.32;;;13.00;;
1346;SDS011;667;48.796;9.480;2024-01-30T11:20:20;13.40;;;11.40;;
1346;SDS011;667;48.796;9.480;2024-01-30T11:22:46;15.10;;;12.80;;
1346;SDS011;667;48.796;9.480;2024-01-30T11:25:17;16.67;;;12.93;;
1346;SDS011;667;48.796;9.480;2024-01-30T11:27:44;15.00;;;12.35;;
1346;SDS011;667;48.796;9.480;2024-01-30T11:30:11;12.80;;;11.45;;
1346;SDS011;667;48.796;9.480;2024-01-30T11:33:13;15.70;;;11.82;;
1346;SDS011;667;48.796;9.480;2024-01-30T11:35:40;19.35;;;12.77;;
1346;SDS011;667;48.796;9.480;2024-01-30T11:38:07;15.48;;;13.20;;
1346;SDS011;667;48.796;9.480;2024-01-30T11:40:34;15.55;;;13.95;;
1346;SDS011;667;48.796;9.480;2024-01-30T11:43:02;19.65;;;13.90;;
1346;SDS011;667;48.796;9.480;2024-01-30T11:45:30;14.40;;;11.93;;
1346;SDS011;667;48.796;9.480;2024-01-30T11:47:56;17.75;;;13.50;;
1346;SDS011;667;48.796;9.480;2024-01-30T11:50:22;17.30;;;12.73;;
1346;SDS011;667;48.796;9.480;2024-01-30T11:52:48;17.17;;;14.32;;
1346;SDS011;667;48.796;9.480;2024-01-30T11:55:16;15.17;;;13.57;;
1346;SDS011;667;48.796;9.480;2024-01-30T11:57:43;20.75;;;12.68;;
1346;SDS011;667;48.796;9.480;2024-01-30T12:00:15;15.07;;;12.13;;
1346;SDS011;667;48.796;9.480;2024-01-30T12:02:43;20.48;;;13.07;;
1346;SDS011;667;48.796;9.480;2024-01-30T12:05:09;17.95;;;13.25;;
1346;SDS011;667;48.796;9.480;2024-01-30T12:07:35;15.50;;;13.70;;
1346;SDS011;667;48.796;9.480;2024-01-30T12:10:01;23.20;;;14.27;;
1346;SDS011;667;48.796;9.480;2024-01-30T12:12:27;18.93;;;16.07;;
1346;SDS011;667;48.796;9.480;2024-01-30T12:14:54;20.05;;;14.88;;
1346;SDS011;667;48.796;9.480;2024-01-30T12:17:38;22.08;;;15.50;;
1346;SDS011;667;48.796;9.480;2024-01-30T12:20:12;18.63;;;14.27;;
1346;SDS011;667;48.796;9.480;2024-01-30T12:22:42;17.65;;;14.80;;
1346;SDS011;667;48.796;9.480;2024-01-30T12:25:13;18.08;;;13.57;;
1346;SDS011;667;48.796;9.480;2024-01-30T12:27:43;15.77;;;12.30;;
1346;SDS011;667;48.796;9.480;2024-01-30T12:30:11;13.88;;;12.43;;
1346;SDS011;667;48.796;9.480;2024-01-30T12:32:41;12.23;;;10.85;;
1346;SDS011;667;48.796;9.480;2024-01-30T12:35:11;13.63;;;12.23;;
1346;SDS011;667;48.796;9.480;2024-01-30T12:37:38;14.65;;;11.65;;
1346;SDS011;667;48.796;9.480;2024-01-30T12:40:04;12.32;;;11.10;;
1346;SDS011;667;48.796;9.480;2024-01-30T12:42:34;13.80;;;12.25;;
1346;SDS011;667;48.796;9.480;2024-01-30T12:45:01;12.32;;;10.38;;
1346;SDS011;667;48.796;9.480;2024-01-30T12:47:28;12.25;;;10.13;;
1346;SDS011;667;48.796;9.480;2024-01-30T12:49:53;14.47;;;12.57;;
1346;SDS011;667;48.796;9.480;2024-01-30T12:52:19;12.73;;;11.43;;
1346;SDS011;667;48.796;9.480;2024-01-30T12:54:46;15.13;;;10.98;;
1346;SDS011;667;48.796;9.480;2024-01-30T12:57:12;13.48;;;11.57;;
1346;SDS011;667;48.796;9.480;2024-01-30T12:59:38;14.13;;;11.30;;
1346;SDS011;667;48.796;9.480;2024-01-30T13:02:04;12.48;;;11.15;;
1346;SDS011;667;48.796;9.480;2024-01-30T13:04:30;14.00;;;11.52;;
1346;SDS011;667;48.796;9.480;2024-01-30T13:06:56;22.47;;;12.33;;
1346;SDS011;667;48.796;9.480;2024-01-30T13:09:23;15.93;;;11.60;;
1346;SDS011;667;48.796;9.480;2024-01-30T13:11:48;16.05;;;12.68;;
1346;SDS011;667;48.796;9.480;2024-01-30T13:14:15;14.63;;;12.45;;
1346;SDS011;667;48.796;9.480;2024-01-30T13:16:40;14.47;;;11.77;;
1346;SDS011;667;48.796;9.480;2024-01-30T13:19:06;14.27;;;12.37;;
1346;SDS011;667;48.796;9.480;2024-01-30T13:21:31;16.03;;;11.63;;
1346;SDS011;667;48.796;9.480;2024-01-30T13:23:57;14.00;;;11.07;;
1346;SDS011;667;48.796;9.480;2024-01-30T13:26:22;14.83;;;11.80;;
1346;SDS011;667;48.796;9.480;2024-01-30T13:28:48;23.43;;;12.30;;
1346;SDS011;667;48.796;9.480;2024-01-30T13:31:14;13.40;;;11.40;;
1346;SDS011;667;48.796;9.480;2024-01-30T13:33:40;16.58;;;11.55;;
1346;SDS011;667;48.796;9.480;2024-01-30T13:36:10;16.92;;;10.93;;
1346;SDS011;667;48.796;9.480;2024-01-30T13:38:36;15.25;;;11.15;;
1346;SDS011;667;48.796;9.480;2024-01-30T13:41:02;13.60;;;10.30;;
1346;SDS011;667;48.796;9.480;2024-01-30T13:43:27;12.00;;;9.97;;
1346;SDS011;667;48.796;9.480;2024-01-30T13:45:53;13.70;;;11.13;;
1346;SDS011;667;48.796;9.480;2024-01-30T13:48:19;12.53;;;11.20;;
1346;SDS011;667;48.796;9.480;2024-01-30T13:50:45;11.60;;;10.03;;
1346;SDS011;667;48.796;9.480;2024-01-30T13:53:11;11.80;;;10.53;;
1346;SDS011;667;48.796;9.480;2024-01-30T13:55:37;13.70;;;10.80;;
1346;SDS011;667;48.796;9.480;2024-01-30T13:58:04;13.55;;;11.27;;
1346;SDS011;667;48.796;9.480;2024-01-30T14:00:30;13.07;;;11.70;;
1346;SDS011;667;48.796;9.480;2024-01-30T14:02:55;14.03;;;12.23;;
1346;SDS011;667;48.796;9.480;2024-01-30T14:05:23;15.52;;;13.90;;
1346;SDS011;667;48.796;9.480;2024-01-30T14:07:49;16.02;;;12.43;;
1346;SDS011;667;48.796;9.480;2024-01-30T14:10:15;15.13;;;12.43;;
1346;SDS011;667;48.796;9.480;2024-01-30T14:12:41;15.70;;;12.70;;
1346;SDS011;667;48.796;9.480;2024-01-30T14:15:08;15.93;;;13.18;;
1346;SDS011;667;48.796;9.480;2024-01-30T14:17:37;15.25;;;12.63;;
1346;SDS011;667;48.796;9.480;2024-01-30T14:20:03;15.37;;;12.37;;
1346;SDS011;667;48.796;9.480;2024-01-30T14:22:29;14.00;;;12.55;;
1346;SDS011;667;48.796;9.480;2024-01-30T14:24:55;14.20;;;12.70;;
1346;SDS011;667;48.796;9.480;2024-01-30T14:27:21;15.90;;;14.20;;
1346;SDS011;667;48.796;9.480;2024-01-30T14:29:47;15.30;;;13.17;;
1346;SDS011;667;48.796;9.480;2024-01-30T14:32:12;14.60;;;12.80;;
1346;SDS011;667;48.796;9.480;2024-01-30T14:34:38;21.60;;;13.40;;
1346;SDS011;667;48.796;9.480;2024-01-30T14:37:04;17.33;;;12.20;;
1346;SDS011;667;48.796;9.480;2024-01-30T14:39:29;16.37;;;11.97;;
1346;SDS011;667;48.796;9.480;2024-01-30T14:41:55;16.43;;;12.80;;
1346;SDS011;667;48.796;9.480;2024-01-30T14:44:21;12.83;;;10.70;;
1346;SDS011;667;48.796;9.480;2024-01-30T14:46:46;11.97;;;10.67;;
1346;SDS011;667;48.796;9.480;2024-01-30T14:49:12;9.53;;;8.53;;
1346;SDS011;667;48.796;9.480;2024-01-30T14:51:37;8.53;;;7.73;;
1346;SDS011;667;48.796;9.480;2024-01-30T14:54:03;10.50;;;8.73;;
1346;SDS011;667;48.796;9.480;2024-01-30T14:56:29;13.63;;;8.70;;
1346;SDS011;667;48.796;9.480;2024-01-30T14:58:54;9.70;;;8.80;;
1346;SDS011;667;48.796;9.480;2024-01-30T15:01:21;7.67;;;6.87;;
1346;SDS011;667;48.796;9.480;2024-01-30T15:03:46;7.85;;;7.05;;
1346;SDS011;667;48.796;9.480;2024-01-30T15:06:12;8.30;;;7.40;;
1346;SDS011;667;48.796;9.480;2024-01-30T15:08:38;7.90;;;6.13;;
1346;SDS011;667;48.796;9.480;2024-01-30T15:11:03;8.50;;;6.43;;
1346;SDS011;667;48.796;9.480;2024-01-30T15:13:30;7.53;;;6.70;;
1346;SDS011;667;48.796;9.480;2024-01-30T15:15:55;6.90;;;5.40;;
1346;SDS011;667;48.796;9.480;2024-01-30T15:18:21;7.07;;;5.90;;
1346;SDS011;667;48.796;9.480;2024-01-30T15:20:47;6.83;;;5.80;;
1346;SDS011;667;48.796;9.480;2024-01-30T15:23:12;6.10;;;5.27;;